createdAt,value
2023-03-26T00:56:35.405Z,25.00
2023-03-26T01:00:36.314Z,25.00
2023-03-26T01:04:36.418Z,0.00
2023-03-26T01:08:36.306Z,1.36
2023-03-26T01:12:36.344Z,25.06
2023-03-26T01:16:36.240Z,25.36
2023-03-26T01:20:36.208Z,25.00
2023-03-26T01:24:36.166Z,25.20
2023-03-26T01:28:36.196Z,25.00
2023-03-26T01:32:36.126Z,28.51
2023-03-26T01:36:36.016Z,26.60
2023-03-26T01:40:35.938Z,26.10
2023-03-26T01:44:35.964Z,25.71
2023-03-26T01:48:35.854Z,27.00
2023-03-26T01:52:35.814Z,25.07
2023-03-26T01:56:35.784Z,26.05
2023-03-26T02:00:36.060Z,27.36
2023-03-26T02:04:35.928Z,26.51
2023-03-26T02:08:36.088Z,27.22
2023-03-26T02:12:35.743Z,25.96
2023-03-26T02:16:35.716Z,26.28
2023-03-26T02:20:35.691Z,27.42
2023-03-26T02:24:35.566Z,26.32
2023-03-26T02:28:35.510Z,26.44
2023-03-26T02:32:35.551Z,26.11
2023-03-26T02:36:35.572Z,26.26
2023-03-26T02:40:35.420Z,28.80
2023-03-26T02:44:35.328Z,27.64
2023-03-26T02:48:35.425Z,26.87
2023-03-26T02:52:35.435Z,26.44
2023-03-26T02:56:35.841Z,26.78
2023-03-26T03:00:35.351Z,27.32
2023-03-26T03:04:35.351Z,28.74
2023-03-26T03:08:35.287Z,27.41
2023-03-26T03:12:35.272Z,26.58
2023-03-26T03:16:35.284Z,26.10
2023-03-26T03:20:35.626Z,27.46
2023-03-26T03:24:35.076Z,28.60
2023-03-26T03:28:34.994Z,27.79
2023-03-26T03:32:35.012Z,25.91
2023-03-26T03:36:34.888Z,28.19
2023-03-26T03:40:34.818Z,28.41
2023-03-26T03:44:34.709Z,30.13
2023-03-26T03:48:34.613Z,29.81
2023-03-26T03:52:34.583Z,28.95
2023-03-26T03:56:34.533Z,30.27
2023-03-26T04:00:34.446Z,28.77
2023-03-26T04:04:34.486Z,30.40
2023-03-26T04:08:34.550Z,29.32
2023-03-26T04:12:34.645Z,30.94
2023-03-26T04:16:34.882Z,30.54
2023-03-26T04:20:34.924Z,30.95
2023-03-26T04:24:35.087Z,31.20
2023-03-26T04:28:35.197Z,30.50
2023-03-26T04:32:35.356Z,31.49
2023-03-26T04:36:35.465Z,30.73
2023-03-26T04:40:35.604Z,31.01
2023-03-26T04:44:35.706Z,31.89
2023-03-26T04:48:35.823Z,30.66
2023-03-26T04:52:35.958Z,31.29
2023-03-26T04:56:36.146Z,32.08
2023-03-26T05:00:36.248Z,30.35
2023-03-26T05:04:36.376Z,31.03
2023-03-26T05:08:36.442Z,30.37
2023-03-26T05:12:36.587Z,30.30
2023-03-26T05:16:36.704Z,31.19
2023-03-26T05:20:36.784Z,31.42
2023-03-26T05:24:36.901Z,29.88
2023-03-26T05:28:37.037Z,30.82
2023-03-26T05:32:37.156Z,32.37
2023-03-26T05:36:37.213Z,31.90
2023-03-26T05:40:37.331Z,30.94
2023-03-26T05:44:37.425Z,32.78
2023-03-26T05:48:37.508Z,32.21
2023-03-26T05:52:37.604Z,32.03
2023-03-26T05:56:37.783Z,30.77
2023-03-26T06:00:37.786Z,31.87
2023-03-26T06:04:37.876Z,32.31
2023-03-26T06:08:37.900Z,31.39
2023-03-26T06:12:37.986Z,31.65
2023-03-26T06:16:38.077Z,30.41
2023-03-26T06:20:38.137Z,31.86
2023-03-26T06:24:38.210Z,32.03
2023-03-26T06:28:38.265Z,32.61
2023-03-26T06:32:38.473Z,33.03
2023-03-26T06:36:38.405Z,31.59
2023-03-26T06:40:38.469Z,31.87
2023-03-26T06:44:38.543Z,33.70
2023-03-26T06:48:38.623Z,31.93
2023-03-26T06:52:38.617Z,34.00
2023-03-26T06:56:38.697Z,33.25
2023-03-26T07:00:38.798Z,32.27
2023-03-26T07:04:38.820Z,31.86
2023-03-26T07:08:38.849Z,32.00
2023-03-26T07:12:38.893Z,33.17
2023-03-26T07:16:38.989Z,32.47
2023-03-26T07:20:38.986Z,33.18
2023-03-26T07:24:39.007Z,32.40
2023-03-26T07:28:39.034Z,33.65
2023-03-26T07:32:39.077Z,32.80
2023-03-26T07:36:39.100Z,34.64
2023-03-26T07:40:39.057Z,32.24
2023-03-26T07:44:39.109Z,33.08
2023-03-26T07:48:38.991Z,32.40
2023-03-26T07:52:39.002Z,31.56
2023-03-26T07:56:39.239Z,32.60
2023-03-26T08:00:39.103Z,30.09
2023-03-26T08:04:39.162Z,30.31
2023-03-26T08:08:38.976Z,28.65
2023-03-26T08:12:38.878Z,29.35
2023-03-26T08:16:38.769Z,29.46
2023-03-26T08:20:38.681Z,27.92
2023-03-26T08:24:38.759Z,29.03
2023-03-26T08:28:38.874Z,27.85
2023-03-26T08:32:39.024Z,28.03
2023-03-26T08:36:39.087Z,26.15
2023-03-26T08:40:39.194Z,28.77
2023-03-26T08:44:39.271Z,27.24
2023-03-26T08:48:39.381Z,26.97
2023-03-26T08:52:39.479Z,29.03
2023-03-26T08:56:39.713Z,29.48
2023-03-26T09:00:39.763Z,27.41
2023-03-26T09:04:39.943Z,28.04
2023-03-26T09:08:54.284Z,29.29
2023-03-26T09:12:39.744Z,30.68
2023-03-26T09:16:39.680Z,30.83
2023-03-26T09:20:39.491Z,32.44
2023-03-26T09:24:39.382Z,30.00
2023-03-26T09:28:39.339Z,32.76
2023-03-26T09:32:39.229Z,27.29
2023-03-26T09:36:39.105Z,29.36
2023-03-26T09:40:39.038Z,27.82
2023-03-26T09:44:39.018Z,29.64
2023-03-26T09:48:38.956Z,28.38
2023-03-26T09:52:38.920Z,28.38
2023-03-26T09:56:39.598Z,27.00
2023-03-26T10:00:38.900Z,28.02
2023-03-26T10:04:38.884Z,28.83
2023-03-26T10:08:38.861Z,28.88
2023-03-26T10:12:38.788Z,29.01
2023-03-26T10:16:38.793Z,31.54
2023-03-26T10:20:38.641Z,29.68
2023-03-26T10:24:38.555Z,28.12
2023-03-26T10:28:38.498Z,28.91
2023-03-26T10:32:38.444Z,30.40
2023-03-26T10:36:38.348Z,29.13
2023-03-26T10:40:38.282Z,28.27
2023-03-26T10:44:38.213Z,29.85
2023-03-26T10:48:38.184Z,29.99
2023-03-26T10:52:38.088Z,27.58
2023-03-26T10:56:38.089Z,29.11
2023-03-26T11:00:37.974Z,29.72
2023-03-26T11:04:37.979Z,29.20
2023-03-26T11:08:37.921Z,28.49
2023-03-26T11:12:37.832Z,28.36
2023-03-26T11:16:37.757Z,28.90
2023-03-26T11:20:37.729Z,29.38
2023-03-26T11:24:37.659Z,30.51
2023-03-26T11:28:37.600Z,27.38
2023-03-26T11:32:37.589Z,27.55
2023-03-26T11:36:37.555Z,28.14
2023-03-26T11:40:37.456Z,28.67
2023-03-26T11:44:37.388Z,29.58
2023-03-26T11:48:37.342Z,27.43
2023-03-26T11:52:37.376Z,29.32
2023-03-26T11:56:37.347Z,29.53
2023-03-26T12:00:37.230Z,30.00
2023-03-26T12:04:37.222Z,28.84
2023-03-26T12:08:37.122Z,27.85
2023-03-26T12:12:37.043Z,28.27
2023-03-26T12:16:37.024Z,27.76
2023-03-26T12:20:37.005Z,28.70
2023-03-26T12:24:36.923Z,29.57
2023-03-26T12:28:36.863Z,28.83
2023-03-26T12:32:45.748Z,28.84
2023-03-26T12:36:36.703Z,27.87
2023-03-26T12:40:36.769Z,28.72
2023-03-26T12:44:52.752Z,27.11
2023-03-26T12:48:36.594Z,29.09
2023-03-26T12:52:36.377Z,29.56
2023-03-26T12:56:36.556Z,30.13
2023-03-26T13:00:36.240Z,28.96
2023-03-26T13:04:36.181Z,29.60
2023-03-26T13:08:36.130Z,28.69
2023-03-26T13:12:36.085Z,29.73
2023-03-26T13:16:36.044Z,28.32
2023-03-26T13:20:35.897Z,27.97
2023-03-26T13:24:35.825Z,27.97
2023-03-26T13:28:35.788Z,27.81
2023-03-26T13:32:35.745Z,28.42
2023-03-26T13:36:35.695Z,28.91
2023-03-26T13:40:35.554Z,28.60
2023-03-26T13:44:35.515Z,27.69
2023-03-26T13:48:35.433Z,29.85
2023-03-26T13:52:35.432Z,29.11
2023-03-26T13:56:35.473Z,28.34
2023-03-26T14:00:35.470Z,30.29
2023-03-26T14:04:35.452Z,29.01
2023-03-26T14:08:35.502Z,29.66
2023-03-26T14:12:35.478Z,29.01
2023-03-26T14:16:35.507Z,28.73
2023-03-26T14:20:35.491Z,29.27
2023-03-26T14:24:35.510Z,27.89
2023-03-26T14:28:35.531Z,25.78
2023-03-26T14:32:35.600Z,28.22
2023-03-26T14:36:35.635Z,25.48
2023-03-26T14:40:35.698Z,28.48
2023-03-26T14:44:47.706Z,26.31
2023-03-26T14:48:35.727Z,27.99
2023-03-26T14:52:35.572Z,27.04
2023-03-26T14:56:35.561Z,25.15
2023-03-26T15:00:35.494Z,27.16
2023-03-26T15:04:35.619Z,27.04
2023-03-26T15:08:35.380Z,29.10
2023-03-26T15:12:35.342Z,26.08
2023-03-26T15:16:35.362Z,25.37
2023-03-26T15:20:35.283Z,26.16
2023-03-26T15:24:35.199Z,26.18
2023-03-26T15:28:35.173Z,27.40
2023-03-26T15:32:35.196Z,26.76
2023-03-26T15:36:35.193Z,28.20
2023-03-26T15:40:35.224Z,26.74
2023-03-26T15:44:43.724Z,26.85
2023-03-26T15:48:35.269Z,28.69
2023-03-26T15:52:35.217Z,30.01
2023-03-26T15:56:35.147Z,28.31
2023-03-26T16:00:35.129Z,30.54
2023-03-26T16:04:35.131Z,30.52
2023-03-26T16:08:36.803Z,30.44
2023-03-26T16:12:34.974Z,30.95
2023-03-26T16:16:34.944Z,31.00
2023-03-26T16:20:34.910Z,32.57
2023-03-26T16:24:34.871Z,33.25
2023-03-26T16:28:34.821Z,31.72
2023-03-26T16:32:34.778Z,30.59
2023-03-26T16:36:34.780Z,31.97
2023-03-26T16:40:35.316Z,29.89
2023-03-26T16:44:34.868Z,29.52
2023-03-26T16:48:35.036Z,29.12
2023-03-26T16:52:35.200Z,30.99
2023-03-26T16:56:35.388Z,29.77
2023-03-26T17:00:35.507Z,29.79
2023-03-26T17:04:35.666Z,32.60
2023-03-26T17:08:37.181Z,30.64
2023-03-26T17:12:36.076Z,31.25
2023-03-26T17:16:36.264Z,29.56
2023-03-26T17:20:36.416Z,29.64
2023-03-26T17:24:36.595Z,30.61
2023-03-26T17:28:36.770Z,29.38
2023-03-26T17:32:36.973Z,30.68
2023-03-26T17:36:36.875Z,31.23
2023-03-26T17:40:36.893Z,31.46
2023-03-26T17:44:36.847Z,30.55
2023-03-26T17:48:36.779Z,28.59
2023-03-26T17:52:36.735Z,29.09
2023-03-26T17:56:36.723Z,28.14
2023-03-26T18:00:36.690Z,29.02
2023-03-26T18:04:36.675Z,28.72
2023-03-26T18:08:36.839Z,28.31
2023-03-26T18:12:37.020Z,28.80
2023-03-26T18:16:37.369Z,29.19
2023-03-26T18:20:37.376Z,28.65
2023-03-26T18:24:37.575Z,28.52
2023-03-26T18:28:37.725Z,28.71
2023-03-26T18:32:37.953Z,29.27
2023-03-26T18:36:38.087Z,27.48
2023-03-26T18:40:38.275Z,28.61
2023-03-26T18:44:38.465Z,29.92
2023-03-26T18:48:38.710Z,28.46
2023-03-26T18:52:38.862Z,30.10
2023-03-26T18:56:39.076Z,26.58
2023-03-26T19:00:39.231Z,27.73
2023-03-26T19:04:39.429Z,26.01
2023-03-26T19:08:39.605Z,28.77
2023-03-26T19:12:39.816Z,27.51
2023-03-26T19:16:40.107Z,29.92
2023-03-26T19:20:40.279Z,28.12
2023-03-26T19:24:40.435Z,28.99
2023-03-26T19:28:40.662Z,28.82
2023-03-26T19:32:40.859Z,27.59
2023-03-26T19:36:41.096Z,27.07
2023-03-26T19:40:41.285Z,27.76
2023-03-26T19:44:41.495Z,26.05
2023-03-26T19:48:46.046Z,27.83
2023-03-26T19:52:41.685Z,28.66
2023-03-26T19:56:41.611Z,26.70
2023-03-26T20:00:41.643Z,27.99
2023-03-26T20:04:41.524Z,28.11
2023-03-26T20:08:41.533Z,27.42
2023-03-26T20:12:41.470Z,27.40
2023-03-26T20:16:43.095Z,27.31
2023-03-26T20:20:41.533Z,28.12
2023-03-26T20:24:41.516Z,25.42
2023-03-26T20:28:47.653Z,25.55
2023-03-26T20:32:41.980Z,27.07
2023-03-26T20:36:41.619Z,27.29
2023-03-26T20:40:41.350Z,26.84
2023-03-26T20:44:41.295Z,27.80
2023-03-26T20:48:41.266Z,25.74
2023-03-26T20:52:41.237Z,27.51
2023-03-26T20:56:41.430Z,26.31
2023-03-26T21:00:41.361Z,28.07
2023-03-26T21:04:41.319Z,27.73
2023-03-26T21:08:41.275Z,28.03
2023-03-26T21:12:41.256Z,25.54
2023-03-26T21:16:41.301Z,27.24
2023-03-26T21:20:41.098Z,27.74
2023-03-26T21:24:41.252Z,26.23
2023-03-26T21:28:42.539Z,26.98
2023-03-26T21:32:41.431Z,25.85
2023-03-26T21:36:41.366Z,26.23
2023-03-26T21:40:46.891Z,28.51
2023-03-26T21:44:41.259Z,29.57
2023-03-26T21:48:41.163Z,25.85
2023-03-26T21:52:41.095Z,27.68
2023-03-26T21:56:41.103Z,27.42
2023-03-26T22:00:55.694Z,26.69
2023-03-26T22:04:40.907Z,26.38
2023-03-26T22:08:40.888Z,27.41
2023-03-26T22:12:40.804Z,26.24
2023-03-26T22:16:40.778Z,26.35
2023-03-26T22:20:40.663Z,26.50
2023-03-26T22:24:40.623Z,27.48
2023-03-26T22:28:40.780Z,28.33
2023-03-26T22:32:40.794Z,25.35
2023-03-26T22:36:40.686Z,26.29
2023-03-26T22:40:40.650Z,28.33
2023-03-26T22:44:40.593Z,26.76
2023-03-26T22:48:40.571Z,25.22
2023-03-26T22:52:40.508Z,27.76
2023-03-26T22:56:41.550Z,28.40
2023-03-26T23:00:40.621Z,27.95
2023-03-26T23:56:21.373Z,25.00
